createdAt,value
2019-02-23T00:01:57.256Z,3.50
2019-02-23T00:05:02.232Z,3.70
2019-02-23T00:08:07.305Z,3.30
2019-02-23T00:11:12.321Z,3.50
2019-02-23T00:14:17.387Z,3.43
2019-02-23T00:17:22.361Z,4.23
2019-02-23T00:20:28.794Z,4.00
2019-02-23T00:23:33.822Z,4.30
2019-02-23T00:26:38.796Z,4.10
2019-02-23T00:29:43.871Z,3.73
2019-02-23T00:32:48.877Z,4.20
2019-02-23T00:35:53.794Z,3.97
2019-02-23T00:38:58.879Z,4.37
2019-02-23T00:42:04.153Z,3.27
2019-02-23T00:45:09.125Z,4.20
2019-02-23T00:48:14.377Z,3.57
2019-02-23T00:51:19.360Z,3.80
2019-02-23T00:54:24.449Z,3.20
2019-02-23T00:57:30.397Z,3.90
2019-02-23T01:00:35.395Z,4.00
2019-02-23T01:03:40.967Z,4.00
2019-02-23T01:06:46.264Z,3.40
2019-02-23T01:09:51.203Z,3.80
2019-02-23T01:12:56.344Z,2.80
2019-02-23T01:16:01.369Z,3.67
2019-02-23T01:19:06.657Z,3.77
2019-02-23T01:22:11.546Z,4.00
2019-02-23T01:25:16.517Z,3.30
2019-02-23T01:28:21.553Z,3.10
2019-02-23T01:31:29.208Z,2.97
2019-02-23T01:34:34.283Z,3.40
2019-02-23T01:37:39.214Z,3.30
2019-02-23T01:40:44.133Z,3.23
2019-02-23T01:43:49.208Z,3.60
2019-02-23T01:46:54.126Z,3.70
2019-02-23T01:49:59.400Z,3.10
2019-02-23T01:53:04.335Z,2.60
2019-02-23T01:56:19.703Z,3.50
2019-02-23T01:59:24.882Z,3.63
2019-02-23T02:02:29.903Z,3.27
2019-02-23T02:05:34.907Z,3.40
2019-02-23T02:08:40.384Z,3.83
2019-02-23T02:11:55.015Z,2.80
2019-02-23T02:15:00.206Z,2.80
2019-02-23T02:18:05.380Z,2.80
2019-02-23T02:21:10.393Z,3.17
2019-02-23T02:24:15.382Z,3.63
2019-02-23T02:27:20.400Z,6.17
2019-02-23T02:30:25.352Z,3.50
2019-02-23T02:33:30.238Z,4.37
2019-02-23T02:36:35.221Z,4.53
2019-02-23T02:39:40.313Z,3.10
2019-02-23T02:42:45.502Z,3.60
2019-02-23T02:45:50.435Z,3.20
2019-02-23T02:48:55.213Z,2.87
2019-02-23T02:52:00.024Z,3.47
2019-02-23T02:55:05.144Z,2.60
2019-02-23T02:58:10.392Z,3.00
2019-02-23T03:01:15.326Z,2.63
2019-02-23T03:04:20.319Z,3.00
2019-02-23T03:07:25.347Z,2.80
2019-02-23T03:10:30.355Z,2.60
2019-02-23T03:13:35.186Z,2.90
2019-02-23T03:16:40.189Z,2.70
2019-02-23T03:19:45.328Z,2.97
2019-02-23T03:22:53.514Z,2.90
2019-02-23T03:25:58.405Z,2.97
2019-02-23T03:29:03.458Z,2.70
2019-02-23T03:32:15.670Z,2.50
2019-02-23T03:35:20.686Z,3.00
2019-02-23T03:38:25.606Z,3.10
2019-02-23T03:41:30.916Z,3.13
2019-02-23T03:44:35.784Z,2.70
2019-02-23T03:47:40.878Z,3.33
2019-02-23T03:50:49.041Z,3.00
2019-02-23T03:53:52.290Z,2.90
2019-02-23T03:56:57.383Z,3.43
2019-02-23T04:00:02.656Z,2.67
2019-02-23T04:03:07.601Z,2.53
2019-02-23T04:06:12.755Z,2.40
2019-02-23T04:09:17.572Z,3.90
2019-02-23T04:12:22.517Z,2.67
2019-02-23T04:15:27.461Z,2.50
2019-02-23T04:18:33.237Z,2.90
2019-02-23T04:21:38.206Z,2.50
2019-02-23T04:24:43.361Z,3.10
2019-02-23T04:27:48.284Z,3.27
2019-02-23T04:30:53.454Z,2.73
2019-02-23T04:33:58.438Z,3.43
2019-02-23T04:37:03.475Z,2.97
2019-02-23T04:40:08.559Z,4.00
2019-02-23T04:43:14.024Z,4.40
2019-02-23T04:46:18.938Z,7.37
2019-02-23T04:49:26.015Z,5.47
2019-02-23T04:52:30.661Z,4.43
2019-02-23T04:55:35.535Z,4.53
2019-02-23T04:58:40.449Z,4.60
2019-02-23T05:01:45.420Z,3.73
2019-02-23T05:04:50.442Z,3.57
2019-02-23T05:07:55.561Z,3.50
2019-02-23T05:11:00.391Z,3.20
2019-02-23T05:14:05.383Z,3.50
2019-02-23T05:17:10.574Z,4.13
2019-02-23T05:20:15.441Z,3.60
2019-02-23T05:23:20.395Z,3.67
2019-02-23T05:26:25.639Z,3.30
2019-02-23T05:29:30.728Z,3.13
2019-02-23T05:32:35.678Z,4.00
2019-02-23T05:35:40.714Z,3.60
2019-02-23T05:38:51.457Z,3.63
2019-02-23T05:41:56.611Z,3.90
2019-02-23T05:45:01.711Z,3.80
2019-02-23T05:48:06.875Z,4.23
2019-02-23T05:51:11.869Z,3.50
2019-02-23T05:54:16.682Z,3.97
2019-02-23T05:57:21.649Z,3.83
2019-02-23T06:00:26.738Z,4.43
2019-02-23T06:03:31.982Z,3.60
2019-02-23T06:06:36.900Z,3.60
2019-02-23T06:09:42.079Z,3.30
2019-02-23T06:12:46.978Z,4.10
2019-02-23T06:15:52.123Z,3.93
2019-02-23T06:18:57.153Z,4.00
2019-02-23T06:22:02.449Z,3.53
2019-02-23T06:25:08.349Z,3.90
2019-02-23T06:28:13.241Z,3.73
2019-02-23T06:31:18.192Z,3.60
2019-02-23T06:34:23.221Z,3.43
2019-02-23T06:37:28.314Z,4.23
2019-02-23T06:40:33.299Z,4.40
2019-02-23T06:43:38.406Z,4.03
2019-02-23T06:46:43.357Z,4.20
2019-02-23T06:49:48.493Z,5.20
2019-02-23T06:52:55.002Z,5.40
2019-02-23T06:56:00.223Z,5.87
2019-02-23T06:59:05.334Z,4.50
2019-02-23T07:02:10.207Z,4.50
2019-02-23T07:05:15.109Z,4.60
2019-02-23T07:08:20.224Z,5.27
2019-02-23T07:11:25.504Z,5.07
2019-02-23T07:14:30.538Z,6.27
2019-02-23T07:17:35.555Z,5.23
2019-02-23T07:20:44.125Z,4.90
2019-02-23T07:23:47.055Z,5.07
2019-02-23T07:26:52.062Z,6.90
2019-02-23T07:29:57.142Z,4.60
2019-02-23T07:33:02.120Z,3.80
2019-02-23T07:36:07.242Z,3.03
2019-02-23T07:39:12.272Z,4.87
2019-02-23T07:42:17.252Z,4.17
2019-02-23T07:45:22.316Z,3.80
2019-02-23T07:48:27.603Z,3.67
2019-02-23T07:51:32.499Z,2.83
2019-02-23T07:54:37.407Z,3.27
2019-02-23T07:57:42.442Z,3.37
2019-02-23T08:00:47.476Z,2.97
2019-02-23T08:03:52.663Z,3.07
2019-02-23T08:06:57.954Z,3.93
2019-02-23T08:10:02.911Z,4.33
2019-02-23T08:13:07.969Z,5.00
2019-02-23T08:16:12.953Z,4.37
2019-02-23T08:19:17.907Z,4.43
2019-02-23T08:22:23.220Z,5.47
2019-02-23T08:25:28.383Z,3.73
2019-02-23T08:28:33.305Z,5.53
2019-02-23T08:31:38.184Z,4.40
2019-02-23T08:34:43.172Z,3.50
2019-02-23T08:37:54.717Z,4.30
2019-02-23T08:40:59.619Z,4.33
2019-02-23T08:44:04.763Z,4.20
2019-02-23T08:47:09.730Z,4.57
2019-02-23T08:50:14.662Z,3.67
2019-02-23T08:53:19.482Z,3.90
2019-02-23T08:56:24.505Z,4.10
2019-02-23T08:59:29.424Z,4.00
2019-02-23T09:02:34.608Z,3.80
2019-02-23T09:05:39.631Z,4.87
2019-02-23T09:08:44.904Z,3.67
2019-02-23T09:11:50.102Z,3.90
2019-02-23T09:14:55.389Z,4.10
2019-02-23T09:18:00.308Z,3.73
2019-02-23T09:21:05.430Z,3.40
2019-02-23T09:24:10.378Z,2.80
2019-02-23T09:27:15.521Z,3.00
2019-02-23T09:30:20.865Z,4.40
2019-02-23T09:33:25.828Z,3.40
2019-02-23T09:36:30.913Z,2.83
2019-02-23T09:39:35.989Z,3.00
2019-02-23T09:42:41.225Z,2.87
2019-02-23T09:45:46.260Z,2.70
2019-02-23T09:48:51.242Z,2.83
2019-02-23T09:51:56.235Z,3.00
2019-02-23T09:55:01.285Z,2.93
2019-02-23T09:58:06.517Z,2.50
2019-02-23T10:01:16.271Z,2.87
2019-02-23T10:04:21.400Z,3.17
2019-02-23T10:07:26.641Z,3.20
2019-02-23T10:10:31.659Z,4.30
2019-02-23T10:13:36.731Z,3.47
2019-02-23T10:16:41.668Z,3.77
2019-02-23T10:19:46.809Z,3.30
2019-02-23T10:22:51.757Z,2.60
2019-02-23T10:25:56.512Z,3.40
2019-02-23T10:29:01.261Z,3.07
2019-02-23T10:32:06.091Z,3.50
2019-02-23T10:35:12.048Z,2.33
2019-02-23T10:38:17.246Z,2.80
2019-02-23T10:41:22.120Z,2.27
2019-02-23T10:44:27.075Z,4.70
2019-02-23T10:47:32.041Z,4.87
2019-02-23T10:50:37.055Z,2.98
2019-02-23T10:53:42.223Z,2.22
2019-02-23T10:56:47.493Z,2.40
2019-02-23T10:59:52.613Z,1.90
2019-02-23T11:02:57.481Z,2.30
2019-02-23T11:06:03.088Z,2.33
2019-02-23T11:09:10.744Z,2.40
2019-02-23T11:12:15.666Z,2.40
2019-02-23T11:15:21.222Z,2.63
2019-02-23T11:18:26.268Z,1.70
2019-02-23T11:21:31.611Z,1.50
2019-02-23T11:24:36.527Z,1.60
2019-02-23T11:27:41.727Z,1.80
2019-02-23T11:30:46.900Z,2.10
2019-02-23T11:33:51.945Z,1.63
2019-02-23T11:36:56.963Z,3.40
2019-02-23T11:40:01.986Z,2.57
2019-02-23T11:43:06.976Z,1.87
2019-02-23T11:46:12.124Z,1.63
2019-02-23T11:49:17.440Z,1.80
2019-02-23T11:52:22.540Z,1.57
2019-02-23T11:55:27.564Z,1.73
2019-02-23T11:58:32.680Z,1.70
2019-02-23T12:01:37.781Z,2.43
2019-02-23T12:04:42.693Z,2.03
2019-02-23T12:07:47.707Z,2.20
2019-02-23T12:10:52.822Z,3.10
2019-02-23T12:13:58.022Z,4.50
2019-02-23T12:17:02.904Z,2.07
2019-02-23T12:20:08.249Z,2.63
2019-02-23T12:23:13.548Z,2.87
2019-02-23T12:26:18.706Z,5.00
2019-02-23T12:29:23.828Z,2.50
2019-02-23T12:32:28.796Z,2.60
2019-02-23T12:35:33.794Z,1.80
2019-02-23T12:38:38.896Z,5.03
2019-02-23T12:41:47.025Z,6.60
2019-02-23T12:44:52.446Z,3.17
2019-02-23T12:47:57.418Z,5.20
2019-02-23T12:51:04.765Z,1.20
2019-02-23T12:54:16.495Z,2.30
2019-02-23T12:57:16.169Z,2.57
2019-02-23T13:00:21.253Z,2.13
2019-02-23T13:03:26.191Z,3.17
2019-02-23T13:06:31.348Z,2.60
2019-02-23T13:09:40.227Z,1.92
2019-02-23T13:13:13.287Z,2.30
2019-02-23T13:16:42.637Z,2.53
2019-02-23T13:20:17.724Z,2.30
2019-02-23T13:23:58.704Z,2.30
2019-02-23T13:27:21.209Z,2.50
2019-02-23T13:31:06.748Z,1.70
2019-02-23T13:34:46.284Z,1.97
2019-02-23T13:38:25.812Z,1.80
2019-02-23T13:41:56.625Z,2.40
2019-02-23T13:45:38.527Z,1.70
2019-02-23T13:49:37.680Z,1.90
2019-02-23T13:53:05.949Z,2.50
2019-02-23T13:56:48.501Z,1.97
2019-02-23T14:00:18.170Z,2.07
2019-02-23T14:04:03.926Z,2.80
2019-02-23T14:07:55.710Z,1.70
2019-02-23T14:11:43.701Z,2.07
2019-02-23T14:15:34.059Z,1.53
2019-02-23T14:18:49.115Z,2.70
2019-02-23T14:22:23.181Z,2.20
2019-02-23T14:26:06.759Z,2.10
2019-02-23T14:29:36.233Z,1.70
2019-02-23T14:32:57.914Z,1.80
2019-02-23T14:36:33.607Z,2.00
2019-02-23T14:40:01.588Z,2.10
2019-02-23T14:43:58.315Z,2.07
2019-02-23T14:47:21.166Z,2.00
2019-02-23T14:51:17.949Z,2.77
2019-02-23T14:55:00.891Z,3.90
2019-02-23T14:58:56.216Z,3.50
2019-02-23T15:02:44.873Z,2.47
2019-02-23T15:06:20.805Z,3.50
2019-02-23T15:10:21.432Z,2.90
2019-02-23T15:14:14.783Z,3.07
2019-02-23T15:18:14.763Z,2.43
2019-02-23T15:21:35.680Z,2.97
2019-02-23T15:25:20.638Z,2.50
2019-02-23T15:29:15.800Z,9.53
2019-02-23T15:33:07.220Z,6.30
2019-02-23T15:36:39.791Z,2.80
2019-02-23T15:40:16.599Z,2.33
2019-02-23T15:44:09.122Z,2.57
2019-02-23T15:47:28.643Z,4.60
2019-02-23T15:50:33.979Z,5.97
2019-02-23T15:53:39.159Z,3.07
2019-02-23T15:56:44.270Z,2.13
2019-02-23T15:59:49.249Z,2.73
2019-02-23T16:02:54.410Z,2.40
2019-02-23T16:05:59.741Z,2.80
2019-02-23T16:09:04.893Z,6.67
2019-02-23T16:12:09.877Z,2.73
2019-02-23T16:15:14.913Z,3.40
2019-02-23T16:18:20.071Z,2.63
2019-02-23T16:21:29.644Z,3.13
2019-02-23T16:24:35.974Z,2.90
2019-02-23T16:27:41.079Z,3.90
2019-02-23T16:30:46.328Z,6.47
2019-02-23T16:33:51.348Z,4.93
2019-02-23T16:36:56.699Z,6.50
2019-02-23T16:40:01.861Z,3.60
2019-02-23T16:43:06.906Z,3.90
2019-02-23T16:46:11.840Z,2.87
2019-02-23T16:49:16.956Z,4.47
2019-02-23T16:52:21.927Z,3.80
2019-02-23T16:55:27.266Z,5.50
2019-02-23T16:58:32.491Z,5.53
2019-02-23T17:01:37.481Z,11.20
2019-02-23T17:04:52.993Z,10.47
2019-02-23T17:07:49.109Z,5.10
2019-02-23T17:10:54.107Z,3.30
2019-02-23T17:13:59.214Z,3.83
2019-02-23T17:17:04.407Z,3.57
2019-02-23T17:20:09.634Z,4.60
2019-02-23T17:23:33.495Z,11.37
2019-02-23T17:26:38.581Z,4.70
2019-02-23T17:29:43.896Z,5.33
2019-02-23T17:32:48.978Z,3.70
2019-02-23T17:35:53.919Z,5.50
2019-02-23T17:38:59.068Z,5.30
2019-02-23T17:42:07.473Z,6.07
2019-02-23T17:45:12.544Z,6.40
2019-02-23T17:48:17.591Z,8.50
2019-02-23T17:51:22.738Z,7.27
2019-02-23T17:54:27.714Z,7.00
2019-02-23T17:57:51.453Z,10.43
2019-02-23T18:00:57.360Z,12.73
2019-02-23T18:04:02.292Z,7.00
2019-02-23T18:07:07.315Z,7.77
2019-02-23T18:10:12.406Z,8.10
2019-02-23T18:13:17.503Z,8.10
2019-02-23T18:16:22.624Z,9.27
2019-02-23T18:19:27.596Z,8.23
2019-02-23T18:22:32.668Z,7.13
2019-02-23T18:25:37.710Z,6.60
2019-02-23T18:28:42.890Z,6.33
2019-02-23T18:31:48.117Z,7.60
2019-02-23T18:34:53.767Z,7.90
2019-02-23T18:37:58.845Z,8.80
2019-02-23T18:41:03.856Z,6.70
2019-02-23T18:44:09.395Z,9.30
2019-02-23T18:47:14.354Z,10.33
2019-02-23T18:50:22.624Z,10.00
2019-02-23T18:53:27.612Z,7.80
2019-02-23T18:56:32.686Z,10.10
2019-02-23T18:59:37.719Z,11.80
2019-02-23T19:02:43.114Z,10.40
2019-02-23T19:05:50.088Z,13.07
2019-02-23T19:08:54.840Z,11.60
2019-02-23T19:11:59.865Z,15.00
2019-02-23T19:15:05.188Z,9.70
2019-02-23T19:18:10.383Z,9.10
2019-02-23T19:21:15.295Z,8.00
2019-02-23T19:24:20.428Z,8.30
2019-02-23T19:27:25.409Z,8.80
2019-02-23T19:30:30.738Z,8.50
2019-02-23T19:33:35.721Z,7.80
2019-02-23T19:36:42.995Z,8.47
2019-02-23T19:39:48.168Z,8.33
2019-02-23T19:42:53.133Z,9.90
2019-02-23T19:45:58.084Z,8.70
2019-02-23T19:49:03.039Z,9.33
2019-02-23T19:52:09.618Z,9.57
2019-02-23T19:55:16.135Z,8.00
2019-02-23T19:58:21.135Z,8.17
2019-02-23T20:01:26.410Z,9.10
2019-02-23T20:04:31.444Z,9.27
2019-02-23T20:07:36.519Z,10.13
2019-02-23T20:10:42.941Z,9.73
2019-02-23T20:13:47.953Z,9.43
2019-02-23T20:16:53.320Z,9.10
2019-02-23T20:19:58.428Z,7.80
2019-02-23T20:23:03.592Z,9.70
2019-02-23T20:26:29.818Z,10.97
2019-02-23T20:29:34.702Z,9.60
2019-02-23T20:32:39.726Z,12.00
2019-02-23T20:35:45.077Z,12.40
2019-02-23T20:38:50.177Z,11.80
2019-02-23T20:41:58.112Z,12.60
2019-02-23T20:45:03.291Z,13.13
2019-02-23T20:48:08.349Z,11.50
2019-02-23T20:51:13.606Z,10.87
2019-02-23T20:54:18.968Z,11.97
2019-02-23T20:57:24.135Z,11.63
2019-02-23T21:00:29.364Z,12.07
2019-02-23T21:03:34.371Z,10.53
2019-02-23T21:06:40.166Z,10.03
2019-02-23T21:09:45.276Z,9.40
2019-02-23T21:12:50.391Z,9.27
2019-02-23T21:15:55.278Z,8.97
2019-02-23T21:19:00.386Z,8.67
2019-02-23T21:22:05.493Z,7.53
2019-02-23T21:25:10.966Z,7.70
2019-02-23T22:50:18.686Z,9.20
2019-02-23T22:53:23.618Z,8.57
2019-02-23T22:56:28.797Z,8.30
2019-02-23T22:59:33.674Z,8.90
2019-02-23T23:02:38.662Z,9.30
2019-02-23T23:05:45.038Z,8.10
2019-02-23T23:08:50.380Z,8.13
2019-02-23T23:11:55.423Z,8.60
2019-02-23T23:15:00.707Z,8.40
2019-02-23T23:18:05.618Z,7.40
2019-02-23T23:21:10.750Z,9.37
2019-02-23T23:24:15.885Z,7.27
2019-02-23T23:27:20.772Z,8.17
2019-02-23T23:30:25.786Z,7.10
2019-02-23T23:33:31.154Z,7.80
2019-02-23T23:36:36.281Z,7.53
2019-02-23T23:39:41.561Z,7.33
2019-02-23T23:42:46.551Z,6.50
2019-02-23T23:45:51.680Z,6.70
2019-02-23T23:48:56.606Z,7.00
2019-02-23T23:52:01.550Z,7.60
2019-02-23T23:55:06.495Z,8.13
2019-02-23T23:58:11.375Z,9.90
